Time;durP1;ratioP1;P1;durP2;ratioP2;P2;SDS_P1;SDS_P2;PMS_P1;PMS_P2;Temp;Humidity;BMP_temperature;BMP_pressure;BME280_temperature;BME280_humidity;BME280_pressure;Samples;Min_cycle;Max_cycle;Signal;HPM_P1;HPM_P2
2023/07/10 00:01:46;;;;;;;6.53;4.38;;;26.10;76.50;;;;;;5019461;28;20239;-74
2023/07/10 00:04:19;;;;;;;5.82;4.57;;;26.10;76.60;;;;;;5031421;28;20220;-74
2023/07/10 00:06:46;;;;;;;8.88;4.15;;;26.10;76.60;;;;;;5019288;28;20229;-74
2023/07/10 00:09:12;;;;;;;6.68;4.20;;;26.10;77.00;;;;;;5018772;28;20230;-75
2023/07/10 00:11:38;;;;;;;5.65;4.35;;;26.10;76.80;;;;;;5025633;28;20220;-75
2023/07/10 00:14:17;;;;;;;5.68;4.50;;;26.10;77.10;;;;;;5022234;28;20215;-75
2023/07/10 00:16:43;;;;;;;4.93;3.53;;;26.10;77.10;;;;;;5024220;28;20626;-74
2023/07/10 00:19:13;;;;;;;6.72;4.82;;;26.10;77.20;;;;;;5017005;28;20307;-74
2023/07/10 00:21:39;;;;;;;5.03;3.88;;;26.10;78.30;;;;;;5019577;28;20209;-74
2023/07/10 00:24:05;;;;;;;5.60;3.97;;;26.00;77.60;;;;;;5026973;28;20210;-74
2023/07/10 00:26:30;;;;;;;5.40;3.60;;;26.10;77.70;;;;;;5018909;28;20713;-74
2023/07/10 00:28:58;;;;;;;6.40;5.55;;;26.00;77.70;;;;;;5021638;28;20255;-74
2023/07/10 00:31:27;;;;;;;4.75;4.10;;;26.00;78.20;;;;;;5021398;28;20204;-74
2023/07/10 00:33:53;;;;;;;11.65;5.20;;;26.10;78.20;;;;;;5018329;28;20722;-74
2023/07/10 00:36:35;;;;;;;7.00;5.07;;;26.20;78.20;;;;;;5021195;28;20220;-74
2023/07/10 00:39:12;;;;;;;5.25;3.85;;;26.20;78.20;;;;;;5019573;28;20221;-74
2023/07/10 00:41:40;;;;;;;5.15;4.55;;;26.30;78.00;;;;;;5018250;28;20219;-74
2023/07/10 00:44:06;;;;;;;5.80;4.40;;;26.30;78.40;;;;;;5021367;28;20183;-74
2023/07/10 00:46:54;;;;;;;5.80;4.50;;;26.30;78.40;;;;;;5018448;28;20235;-74
2023/07/10 00:49:25;;;;;;;6.18;4.65;;;26.20;79.10;;;;;;5023333;28;20201;-74
2023/07/10 00:52:08;;;;;;;6.68;4.40;;;26.20;80.00;;;;;;5019358;28;20209;-74
2023/07/10 00:54:37;;;;;;;10.38;6.32;;;26.20;81.20;;;;;;5017632;28;20217;-74
2023/07/10 00:57:08;;;;;;;8.52;5.07;;;26.20;82.20;;;;;;5025087;28;20213;-74
2023/07/10 00:59:39;;;;;;;7.45;5.00;;;26.00;83.20;;;;;;5017577;28;20217;-74
2023/07/10 01:02:16;;;;;;;7.45;4.30;;;25.80;84.20;;;;;;5018983;28;20264;-74
2023/07/10 01:04:44;;;;;;;6.38;4.80;;;25.70;85.00;;;;;;5026446;28;20207;-74
2023/07/10 01:07:16;;;;;;;6.30;4.80;;;25.60;85.90;;;;;;5020914;28;20786;-74
2023/07/10 01:09:46;;;;;;;8.68;5.18;;;25.60;86.60;;;;;;5017994;28;20712;-74
2023/07/10 01:12:12;;;;;;;8.90;4.95;;;25.50;87.20;;;;;;5019855;28;20236;-74
2023/07/10 01:14:38;;;;;;;7.60;5.00;;;25.60;87.60;;;;;;5018547;28;20745;-74
2023/07/10 01:17:06;;;;;;;6.13;4.80;;;25.50;88.00;;;;;;5019142;28;20239;-74
2023/07/10 01:19:33;;;;;;;6.40;5.10;;;25.50;88.20;;;;;;5016985;28;20698;-74
2023/07/10 01:21:59;;;;;;;7.70;4.60;;;25.40;88.70;;;;;;5019092;28;20272;-75
2023/07/10 01:24:25;;;;;;;5.35;4.55;;;25.40;89.30;;;;;;5014435;28;20196;-74
2023/07/10 01:26:53;;;;;;;7.43;4.97;;;25.40;89.40;;;;;;5018292;28;20271;-75
2023/07/10 01:29:27;;;;;;;8.50;5.13;;;25.40;89.40;;;;;;5018476;28;20195;-75
2023/07/10 01:31:55;;;;;;;5.88;5.28;;;25.40;89.50;;;;;;5019690;28;20184;-74
2023/07/10 01:34:33;;;;;;;9.43;5.22;;;25.40;89.50;;;;;;5018394;28;20208;-74
2023/07/10 01:37:00;;;;;;;7.70;5.10;;;25.30;89.10;;;;;;5020315;28;20624;-74
2023/07/10 01:40:01;;;;;;;8.05;5.28;;;25.30;89.60;;;;;;5016839;28;20212;-74
2023/07/10 01:42:26;;;;;;;6.57;4.85;;;25.30;90.40;;;;;;4992887;28;20579;-75
2023/07/10 01:44:52;;;;;;;7.60;5.40;;;25.30;91.00;;;;;;5016988;28;20217;-75
2023/07/10 01:47:19;;;;;;;7.43;5.03;;;25.20;91.50;;;;;;5017757;28;20216;-74
2023/07/10 01:49:44;;;;;;;9.63;4.97;;;25.20;91.10;;;;;;5035395;28;20855;-74
2023/07/10 01:52:13;;;;;;;6.43;5.30;;;25.20;91.80;;;;;;5018703;28;20240;-74
2023/07/10 01:54:39;;;;;;;6.95;5.00;;;25.30;91.40;;;;;;5017826;28;20219;-75
2023/07/10 01:57:06;;;;;;;9.45;5.20;;;25.20;91.30;;;;;;5018377;28;20248;-74
2023/07/10 01:59:32;;;;;;;7.10;5.25;;;25.30;91.70;;;;;;5017996;28;20208;-74
2023/07/10 02:01:59;;;;;;;5.53;4.95;;;25.20;91.10;;;;;;5023394;28;20177;-74
2023/07/10 02:04:25;;;;;;;9.13;5.20;;;25.10;91.30;;;;;;5018875;28;20204;-74
2023/07/10 02:06:54;;;;;;;7.55;5.50;;;24.90;91.80;;;;;;5017822;28;20229;-73
2023/07/10 02:09:24;;;;;;;8.25;5.00;;;24.90;92.00;;;;;;5018164;28;20710;-73
2023/07/10 02:11:49;;;;;;;6.95;4.95;;;24.80;92.10;;;;;;5024516;28;20255;-74
2023/07/10 02:14:15;;;;;;;7.40;5.40;;;24.90;91.80;;;;;;5025430;28;20813;-74
2023/07/10 02:16:41;;;;;;;6.40;4.93;;;24.70;91.90;;;;;;5021249;28;20212;-73
2023/07/10 02:19:07;;;;;;;5.38;4.70;;;24.70;92.10;;;;;;5015461;28;20745;-73
2023/07/10 02:21:33;;;;;;;5.88;4.80;;;24.60;92.30;;;;;;5019715;28;20212;-73
2023/07/10 02:23:59;;;;;;;5.65;4.43;;;24.50;92.60;;;;;;5016475;28;20217;-73
2023/07/10 02:26:27;;;;;;;8.13;5.53;;;24.50;92.60;;;;;;5018443;28;20310;-73
2023/07/10 02:28:52;;;;;;;7.03;4.68;;;24.50;92.60;;;;;;5016485;28;20205;-73
2023/07/10 02:31:18;;;;;;;9.00;4.95;;;24.60;92.50;;;;;;5025959;28;20240;-73
2023/07/10 02:33:44;;;;;;;5.82;4.80;;;24.60;91.90;;;;;;5017127;28;20224;-73
2023/07/10 02:36:09;;;;;;;6.68;4.75;;;24.60;91.80;;;;;;5018340;28;20596;-73
2023/07/10 02:38:35;;;;;;;7.07;4.53;;;24.50;91.80;;;;;;5017292;28;20224;-74
2023/07/10 02:41:00;;;;;;;6.78;4.93;;;24.40;92.10;;;;;;5019743;28;20285;-74
2023/07/10 02:43:26;;;;;;;8.82;5.80;;;24.30;92.40;;;;;;5022136;28;20219;-73
2023/07/10 02:45:52;;;;;;;7.63;5.43;;;24.30;92.40;;;;;;5021037;28;20251;-73
2023/07/10 02:48:17;;;;;;;5.53;4.28;;;24.30;92.50;;;;;;5022518;28;20216;-75
2023/07/10 02:50:43;;;;;;;5.78;4.28;;;24.20;92.60;;;;;;5016983;28;20212;-74
2023/07/10 02:53:09;;;;;;;6.30;4.45;;;24.20;92.60;;;;;;5037784;28;20207;-75
2023/07/10 02:55:34;;;;;;;10.60;5.63;;;24.00;92.80;;;;;;5023860;28;20289;-73
2023/07/10 02:58:02;;;;;;;6.18;5.40;;;23.80;93.30;;;;;;5009672;28;20212;-73
2023/07/10 03:00:27;;;;;;;6.32;4.82;;;23.80;93.60;;;;;;5012871;28;20263;-73
2023/07/10 03:02:54;;;;;;;7.00;5.72;;;23.70;94.00;;;;;;5010990;28;20243;-74
2023/07/10 03:05:21;;;;;;;5.90;4.55;;;23.60;94.40;;;;;;5014655;28;20200;-73
2023/07/10 03:07:46;;;;;;;5.20;4.38;;;23.80;94.60;;;;;;5012988;28;20208;-73
2023/07/10 03:10:12;;;;;;;8.85;6.20;;;23.70;94.70;;;;;;5015734;28;20307;-73
2023/07/10 03:12:37;;;;;;;6.50;5.07;;;23.70;94.70;;;;;;5018828;28;20707;-73
2023/07/10 03:15:04;;;;;;;6.88;5.32;;;23.70;94.80;;;;;;5025913;28;20299;-73
2023/07/10 03:17:31;;;;;;;5.63;4.55;;;23.70;94.90;;;;;;5019648;28;20355;-73
2023/07/10 03:19:57;;;;;;;8.68;6.35;;;23.60;95.20;;;;;;5025428;28;20196;-73
2023/07/10 03:22:22;;;;;;;8.80;5.35;;;23.70;95.30;;;;;;5018575;28;20220;-73
2023/07/10 03:24:48;;;;;;;10.32;7.68;;;23.80;95.40;;;;;;5017844;28;20299;-73
2023/07/10 03:27:14;;;;;;;8.23;6.20;;;23.90;95.40;;;;;;5027490;28;20686;-73
2023/07/10 03:29:39;;;;;;;8.20;5.13;;;23.90;95.50;;;;;;5018272;28;20213;-73
2023/07/10 03:32:07;;;;;;;6.95;4.85;;;23.80;95.60;;;;;;5022061;28;20242;-73
2023/07/10 03:34:32;;;;;;;8.55;5.38;;;23.90;95.70;;;;;;5011723;28;20643;-73
2023/07/10 03:36:58;;;;;;;6.18;4.47;;;23.90;95.70;;;;;;5011816;28;20209;-73
2023/07/10 03:39:24;;;;;;;7.72;4.57;;;23.90;95.80;;;;;;5012429;28;20244;-73
2023/07/10 03:41:49;;;;;;;6.60;5.22;;;23.90;95.90;;;;;;5012737;28;20300;-73
2023/07/10 03:44:15;;;;;;;5.88;4.15;;;24.00;95.60;;;;;;5021009;28;20753;-74
2023/07/10 03:46:40;;;;;;;9.45;5.00;;;23.90;95.40;;;;;;5014105;28;20172;-73
2023/07/10 03:49:06;;;;;;;6.15;5.13;;;24.10;95.50;;;;;;5015022;28;20213;-73
2023/07/10 03:51:31;;;;;;;9.45;4.38;;;24.20;95.50;;;;;;5015303;28;20208;-73
2023/07/10 03:53:57;;;;;;;8.95;5.15;;;24.30;95.20;;;;;;5015515;28;20217;-73
2023/07/10 03:56:23;;;;;;;6.90;5.07;;;24.40;95.20;;;;;;5029756;28;20196;-73
2023/07/10 03:58:49;;;;;;;7.00;5.47;;;24.40;94.90;;;;;;5016266;28;20273;-75
2023/07/10 04:01:15;;;;;;;9.98;5.72;;;24.40;94.90;;;;;;5019812;28;20284;-73
2023/07/10 04:03:42;;;;;;;9.43;7.00;;;24.20;94.90;;;;;;5018280;28;20623;-73
2023/07/10 04:06:12;;;;;;;7.28;5.30;;;24.10;95.20;;;;;;5020571;28;20258;-74
2023/07/10 04:08:40;;;;;;;7.18;4.93;;;24.00;95.60;;;;;;5017791;28;20239;-73
2023/07/10 04:11:12;;;;;;;7.07;4.32;;;24.10;95.40;;;;;;5014919;28;20181;-74
2023/07/10 04:13:38;;;;;;;5.47;4.32;;;24.00;95.50;;;;;;5011274;28;20201;-73
2023/07/10 04:16:06;;;;;;;8.52;4.30;;;23.90;95.60;;;;;;5010081;28;20251;-73
2023/07/10 04:18:37;;;;;;;7.53;4.75;;;24.00;95.80;;;;;;5022167;28;20236;-73
2023/07/10 04:21:05;;;;;;;6.15;4.60;;;24.00;96.10;;;;;;5027771;28;20646;-73
2023/07/10 04:23:31;;;;;;;5.07;3.95;;;24.00;95.90;;;;;;5024656;28;20216;-74
2023/07/10 04:25:57;;;;;;;6.13;5.28;;;24.00;96.10;;;;;;5014173;28;20196;-74
2023/07/10 04:28:23;;;;;;;5.93;4.72;;;24.10;96.00;;;;;;5015809;28;20247;-73
2023/07/10 04:30:48;;;;;;;5.32;4.30;;;23.90;95.90;;;;;;5013321;28;20212;-73
2023/07/10 04:33:15;;;;;;;6.22;4.50;;;23.90;95.90;;;;;;5015284;28;20691;-74
2023/07/10 04:35:44;;;;;;;6.47;5.28;;;24.00;96.10;;;;;;5015560;28;20227;-73
2023/07/10 04:38:10;;;;;;;6.00;5.13;;;24.20;96.10;;;;;;5017890;28;20189;-75
2023/07/10 04:40:36;;;;;;;8.68;5.07;;;24.50;95.60;;;;;;5017806;28;20188;-73
2023/07/10 04:43:05;;;;;;;7.80;5.45;;;24.50;95.50;;;;;;5025262;28;20212;-73
2023/07/10 04:45:30;;;;;;;5.93;4.47;;;24.70;95.30;;;;;;5019098;28;20205;-73
2023/07/10 04:47:56;;;;;;;6.72;4.90;;;24.80;95.30;;;;;;5009731;28;20243;-73
2023/07/10 04:50:22;;;;;;;8.88;6.70;;;25.10;94.60;;;;;;5017153;28;20207;-73
2023/07/10 04:52:48;;;;;;;6.68;4.72;;;25.70;94.00;;;;;;5017679;28;20172;-73
2023/07/10 04:55:14;;;;;;;6.78;4.57;;;26.50;92.40;;;;;;5010393;28;20248;-74
2023/07/10 04:57:39;;;;;;;4.90;4.18;;;27.10;91.10;;;;;;5018979;28;20233;-73
2023/07/10 05:00:06;;;;;;;6.32;4.18;;;27.50;90.50;;;;;;5012354;28;20396;-73
2023/07/10 05:02:31;;;;;;;6.70;4.55;;;27.70;90.00;;;;;;5013359;28;20294;-74
2023/07/10 05:04:57;;;;;;;6.25;4.35;;;27.30;90.00;;;;;;5013967;28;20272;-73
2023/07/10 05:07:23;;;;;;;5.95;4.50;;;27.30;90.10;;;;;;5022640;28;20209;-73
2023/07/10 05:09:48;;;;;;;6.78;4.47;;;27.00;90.20;;;;;;5010083;28;20223;-73
2023/07/10 05:12:15;;;;;;;6.50;4.22;;;26.90;90.50;;;;;;5019334;28;20212;-73
2023/07/10 05:14:40;;;;;;;7.65;4.22;;;26.30;90.50;;;;;;5018559;28;20208;-73
2023/07/10 05:17:06;;;;;;;6.05;4.30;;;26.00;92.10;;;;;;5019149;28;20598;-73
2023/07/10 05:19:33;;;;;;;6.18;3.88;;;25.60;93.00;;;;;;5019242;28;20212;-73
2023/07/10 05:22:00;;;;;;;13.35;4.13;;;25.30;94.30;;;;;;5018393;28;20291;-74
2023/07/10 05:24:26;;;;;;;6.57;4.50;;;25.20;96.00;;;;;;5030301;28;20212;-73
2023/07/10 05:26:51;;;;;;;7.82;4.47;;;25.20;96.40;;;;;;5020180;28;20219;-73
2023/07/10 05:29:17;;;;;;;8.40;4.93;;;24.90;97.60;;;;;;5017004;28;20201;-74
2023/07/10 05:31:42;;;;;;;8.68;4.43;;;24.80;99.90;;;;;;5021110;28;20242;-73
2023/07/10 05:34:08;;;;;;;8.15;5.20;;;24.70;99.90;;;;;;5017119;28;20347;-74
2023/07/10 05:36:34;;;;;;;10.38;6.10;;;24.60;99.90;;;;;;5019543;28;20277;-74
2023/07/10 05:39:00;;;;;;;11.07;5.22;;;24.30;99.90;;;;;;5017360;28;20703;-74
2023/07/10 05:41:25;;;;;;;12.00;5.50;;;24.20;99.90;;;;;;5017054;28;20251;-74
2023/07/10 05:43:51;;;;;;;12.57;5.65;;;24.10;99.90;;;;;;5018967;28;20208;-73
2023/07/10 05:46:17;;;;;;;12.65;6.93;;;24.10;99.90;;;;;;5016906;28;20248;-74
2023/07/10 05:48:43;;;;;;;10.85;6.30;;;24.00;99.90;;;;;;5021405;28;20231;-73
2023/07/10 05:51:09;;;;;;;12.40;6.10;;;23.90;99.90;;;;;;5017894;28;20219;-74
2023/07/10 05:53:34;;;;;;;11.15;6.47;;;23.70;99.90;;;;;;5032453;28;20208;-74
2023/07/10 05:56:01;;;;;;;12.25;6.13;;;23.60;99.90;;;;;;5023809;28;20216;-74
2023/07/10 05:58:29;;;;;;;10.55;6.38;;;23.60;99.90;;;;;;5019521;28;20249;-74
2023/07/10 06:00:59;;;;;;;9.10;6.88;;;23.50;99.90;;;;;;5031624;28;20216;-74
2023/07/10 06:03:25;;;;;;;10.32;6.72;;;23.50;99.90;;;;;;5013483;28;20238;-75
2023/07/10 06:05:55;;;;;;;10.45;7.47;;;23.30;99.90;;;;;;5019348;28;20205;-74
2023/07/10 06:08:21;;;;;;;10.45;7.57;;;23.00;99.90;;;;;;5023065;28;20279;-74
2023/07/10 06:10:47;;;;;;;8.70;6.93;;;22.60;99.90;;;;;;5021592;28;20192;-74
2023/07/10 06:13:13;;;;;;;9.82;6.93;;;22.10;99.90;;;;;;5018265;28;20258;-74
2023/07/10 06:15:43;;;;;;;7.85;6.78;;;22.10;99.90;;;;;;5023814;28;20238;-74
2023/07/10 06:18:09;;;;;;;11.00;7.00;;;22.20;99.90;;;;;;5015416;28;20205;-74
2023/07/10 06:20:35;;;;;;;11.45;7.88;;;22.20;99.90;;;;;;5023918;28;20223;-74
2023/07/10 06:23:00;;;;;;;8.52;6.75;;;22.20;99.90;;;;;;5020186;28;20219;-74
2023/07/10 06:25:26;;;;;;;12.00;7.25;;;22.20;99.90;;;;;;5022381;28;20215;-74
2023/07/10 06:27:51;;;;;;;12.00;7.30;;;22.20;99.90;;;;;;5020810;28;20724;-75
2023/07/10 06:30:17;;;;;;;11.60;6.97;;;22.20;99.90;;;;;;5021333;28;20717;-77
2023/07/10 06:32:43;;;;;;;11.60;6.88;;;22.40;99.90;;;;;;5028200;28;20310;-73
2023/07/10 06:35:12;;;;;;;14.25;7.68;;;22.60;99.90;;;;;;5021539;28;20228;-75
2023/07/10 06:37:42;;;;;;;12.70;7.60;;;22.70;99.90;;;;;;5029697;28;20611;-74
2023/07/10 06:40:09;;;;;;;9.85;7.10;;;22.70;99.90;;;;;;5023669;28;20212;-74
2023/07/10 06:42:36;;;;;;;13.55;7.45;;;23.00;99.90;;;;;;5021390;28;20686;-73
2023/07/10 06:45:02;;;;;;;10.02;6.38;;;23.00;99.90;;;;;;5022410;28;20208;-74
2023/07/10 06:47:30;;;;;;;10.73;6.38;;;23.20;99.90;;;;;;5019517;28;20663;-74
2023/07/10 06:49:56;;;;;;;13.93;7.13;;;23.20;99.90;;;;;;5022686;28;20831;-74
2023/07/10 06:52:21;;;;;;;11.48;6.57;;;23.30;99.90;;;;;;5020443;28;20205;-73
2023/07/10 06:54:47;;;;;;;9.50;6.60;;;23.50;99.90;;;;;;5022968;28;20220;-74
2023/07/10 06:57:13;;;;;;;11.70;8.00;;;24.10;99.90;;;;;;5019818;28;20722;-74
2023/07/10 06:59:38;;;;;;;10.80;7.13;;;24.50;99.90;;;;;;5026794;28;20353;-73
2023/07/10 07:02:04;;;;;;;9.25;6.35;;;24.80;99.90;;;;;;5020382;28;20264;-75
2023/07/10 07:04:30;;;;;;;10.50;6.45;;;25.10;99.90;;;;;;5022844;28;20640;-74
2023/07/10 07:06:56;;;;;;;8.65;6.63;;;25.60;99.90;;;;;;5034021;28;20391;-74
2023/07/10 07:09:21;;;;;;;10.25;5.97;;;26.00;99.90;;;;;;5019332;28;20227;-74
2023/07/10 07:11:47;;;;;;;12.13;6.72;;;26.00;99.90;;;;;;5019601;28;20588;-74
2023/07/10 07:14:12;;;;;;;8.68;6.28;;;26.00;99.90;;;;;;5023700;28;20184;-75
2023/07/10 07:16:38;;;;;;;10.68;6.85;;;26.20;99.90;;;;;;5022004;28;20678;-74
2023/07/10 07:19:04;;;;;;;9.35;6.68;;;26.20;99.90;;;;;;5021715;28;20224;-74
2023/07/10 07:21:29;;;;;;;10.88;6.03;;;26.10;99.90;;;;;;5019988;28;20672;-74
2023/07/10 07:23:55;;;;;;;8.18;6.47;;;26.90;99.90;;;;;;5022981;28;20230;-74
2023/07/10 07:26:20;;;;;;;8.85;6.30;;;27.30;99.90;;;;;;5018862;28;20540;-75
2023/07/10 07:28:47;;;;;;;9.73;5.90;;;28.00;99.90;;;;;;5022929;28;20204;-74
2023/07/10 07:31:12;;;;;;;11.65;6.07;;;28.10;99.90;;;;;;5019494;28;20240;-75
2023/07/10 07:33:38;;;;;;;8.77;6.13;;;28.20;99.90;;;;;;5024955;28;20240;-74
2023/07/10 07:36:04;;;;;;;8.32;6.03;;;28.20;99.90;;;;;;5020157;28;20212;-75
2023/07/10 07:38:29;;;;;;;7.78;6.13;;;30.40;99.90;;;;;;5020988;28;20567;-75
2023/07/10 07:40:59;;;;;;;8.52;5.95;;;31.50;99.90;;;;;;5015827;28;20196;-75
2023/07/10 07:43:24;;;;;;;7.57;6.00;;;32.50;99.90;;;;;;5018737;28;20228;-75
2023/07/10 07:45:54;;;;;;;7.53;6.15;;;33.30;99.90;;;;;;5025560;28;20647;-73
2023/07/10 07:48:21;;;;;;;8.32;6.13;;;33.80;99.90;;;;;;5020535;28;20703;-73
2023/07/10 07:51:02;;;;;;;10.73;6.28;;;33.30;98.80;;;;;;5022219;28;20702;-73
2023/07/10 07:53:29;;;;;;;14.68;6.35;;;33.10;98.40;;;;;;5018904;28;20698;-74
2023/07/10 07:55:55;;;;;;;9.27;6.03;;;33.20;97.90;;;;;;5028614;28;20211;-73
2023/07/10 07:58:21;;;;;;;8.60;6.30;;;34.00;96.70;;;;;;5018469;28;20201;-74
2023/07/10 08:00:47;;;;;;;8.13;6.43;;;34.90;95.70;;;;;;5021000;28;20223;-73
2023/07/10 08:03:13;;;;;;;8.82;6.10;;;35.60;94.20;;;;;;5020098;28;20204;-74
2023/07/10 08:05:39;;;;;;;6.60;5.68;;;34.20;94.80;;;;;;5020329;28;20212;-73
2023/07/10 08:08:06;;;;;;;8.45;6.57;;;34.40;95.50;;;;;;5020353;28;20254;-74
2023/07/10 08:10:36;;;;;;;9.43;6.13;;;34.10;94.80;;;;;;5017967;28;20240;-73
2023/07/10 08:13:04;;;;;;;7.25;6.07;;;34.40;94.10;;;;;;5026645;28;20671;-73
2023/07/10 08:15:30;;;;;;;7.30;5.88;;;34.50;93.10;;;;;;5019814;28;20216;-74
2023/07/10 08:17:55;;;;;;;7.30;6.32;;;34.60;93.00;;;;;;5015924;28;20216;-74
2023/07/10 08:20:21;;;;;;;13.95;7.28;;;35.20;91.90;;;;;;5024865;28;20203;-74
2023/07/10 08:22:47;;;;;;;8.40;6.57;;;35.50;90.60;;;;;;5021248;28;20180;-74
2023/07/10 08:25:12;;;;;;;8.23;6.95;;;34.80;91.30;;;;;;5025043;28;20646;-74
2023/07/10 08:27:38;;;;;;;10.80;6.32;;;34.10;91.50;;;;;;5021580;28;20287;-73
2023/07/10 08:30:04;;;;;;;9.45;6.00;;;34.60;91.80;;;;;;5021612;28;20219;-74
2023/07/10 08:32:30;;;;;;;9.40;6.28;;;34.30;91.10;;;;;;5018057;28;20220;-74
2023/07/10 08:34:56;;;;;;;8.23;6.30;;;34.80;91.10;;;;;;5021266;28;20547;-74
2023/07/10 08:37:21;;;;;;;7.95;7.15;;;33.90;91.30;;;;;;5017674;28;20262;-74
2023/07/10 08:39:49;;;;;;;8.55;6.25;;;34.80;91.10;;;;;;5017837;28;20216;-74
2023/07/10 08:42:22;;;;;;;9.13;7.07;;;35.10;90.10;;;;;;5017605;28;20200;-73
2023/07/10 08:44:50;;;;;;;7.40;6.43;;;34.10;90.80;;;;;;5027108;28;20209;-73
2023/07/10 08:47:21;;;;;;;10.93;7.43;;;34.00;91.60;;;;;;5018256;28;20247;-74
2023/07/10 08:50:15;;;;;;;7.85;6.35;;;33.70;91.90;;;;;;5021133;28;20197;-74
2023/07/10 08:52:52;;;;;;;7.43;6.65;;;34.30;91.80;;;;;;5012973;28;20306;-74
2023/07/10 08:55:27;;;;;;;7.72;5.97;;;33.70;91.70;;;;;;5014570;28;20216;-74
2023/07/10 08:58:02;;;;;;;10.25;6.90;;;34.00;92.00;;;;;;5026464;28;20244;-73
2023/07/10 09:00:36;;;;;;;8.00;6.80;;;34.70;90.80;;;;;;5019325;28;20675;-73
2023/07/10 09:03:35;;;;;;;7.47;5.90;;;34.00;91.60;;;;;;5020805;28;20287;-74
2023/07/10 09:06:03;;;;;;;6.80;6.10;;;33.20;91.40;;;;;;5020238;28;20212;-74
2023/07/10 09:08:32;;;;;;;10.38;6.22;;;33.00;92.00;;;;;;5018036;28;20243;-74
2023/07/10 09:11:01;;;;;;;8.95;6.45;;;34.10;92.10;;;;;;5019745;28;20183;-73
2023/07/10 09:13:36;;;;;;;8.25;6.13;;;33.20;91.00;;;;;;5018378;28;20205;-73
2023/07/10 09:16:14;;;;;;;7.50;6.70;;;33.60;91.60;;;;;;5026772;28;20215;-74
2023/07/10 09:18:53;;;;;;;8.75;6.90;;;33.60;91.40;;;;;;5019925;28;20792;-73
2023/07/10 09:21:22;;;;;;;8.85;7.18;;;32.40;92.00;;;;;;5022108;28;20208;-74
2023/07/10 09:23:48;;;;;;;9.60;6.88;;;32.80;92.00;;;;;;5019501;28;20234;-74
2023/07/10 09:26:20;;;;;;;8.90;7.10;;;33.20;92.40;;;;;;5033416;28;20183;-74
2023/07/10 09:29:00;;;;;;;8.90;7.03;;;32.60;93.10;;;;;;5020016;28;20224;-74
2023/07/10 09:31:39;;;;;;;10.52;6.55;;;32.10;93.70;;;;;;5033278;28;20216;-74
2023/07/10 09:34:09;;;;;;;9.18;6.88;;;32.30;94.00;;;;;;5018650;28;20212;-75
2023/07/10 09:36:34;;;;;;;8.48;6.82;;;32.60;93.20;;;;;;5017756;28;20601;-74
2023/07/10 09:39:02;;;;;;;10.35;6.65;;;32.90;93.30;;;;;;5033021;28;20220;-75
2023/07/10 09:41:29;;;;;;;8.48;6.75;;;33.70;92.60;;;;;;5022742;28;20188;-74
2023/07/10 09:44:14;;;;;;;9.77;6.70;;;32.80;93.00;;;;;;5018784;28;20312;-74
2023/07/10 09:46:40;;;;;;;6.95;6.15;;;33.40;93.80;;;;;;5031612;28;20207;-74
2023/07/10 09:49:23;;;;;;;8.10;6.82;;;33.30;92.80;;;;;;5018545;28;20607;-74
2023/07/10 09:52:03;;;;;;;8.05;5.70;;;32.50;93.50;;;;;;5016824;28;20237;-74
2023/07/10 09:54:37;;;;;;;9.30;6.45;;;33.00;94.50;;;;;;5016815;28;20339;-74
2023/07/10 09:57:10;;;;;;;7.85;6.72;;;32.90;93.40;;;;;;5025237;28;20216;-74
2023/07/10 09:59:36;;;;;;;6.43;5.70;;;33.40;93.50;;;;;;5016259;28;20749;-74
2023/07/10 10:02:22;;;;;;;10.98;7.30;;;33.00;93.30;;;;;;5016596;28;20180;-74
2023/07/10 10:05:01;;;;;;;9.73;7.35;;;32.70;93.90;;;;;;5018561;28;20209;-74
2023/07/10 10:07:35;;;;;;;8.00;7.00;;;33.20;94.00;;;;;;5016216;28;20679;-74
2023/07/10 10:10:23;;;;;;;9.70;6.95;;;33.40;93.50;;;;;;5021536;28;20297;-74
2023/07/10 10:13:13;;;;;;;8.18;6.25;;;33.60;93.30;;;;;;5014907;28;20638;-74
2023/07/10 10:15:49;;;;;;;12.02;7.32;;;33.60;93.70;;;;;;5018902;28;20446;-74
2023/07/10 10:18:34;;;;;;;8.02;6.50;;;33.80;93.60;;;;;;5018811;28;20208;-74
2023/07/10 10:21:02;;;;;;;6.45;5.68;;;33.50;93.80;;;;;;5016284;28;20208;-74
2023/07/10 10:23:38;;;;;;;8.05;6.28;;;32.90;93.40;;;;;;5013932;28;20187;-74
2023/07/10 10:26:31;;;;;;;9.32;5.68;;;32.60;93.90;;;;;;5019471;28;20334;-74
2023/07/10 10:29:17;;;;;;;8.10;6.30;;;32.50;94.80;;;;;;5033493;28;20282;-74
2023/07/10 10:31:49;;;;;;;6.80;6.13;;;33.00;95.00;;;;;;5017501;28;20216;-74
2023/07/10 10:34:45;;;;;;;9.05;6.40;;;33.60;94.20;;;;;;5018242;28;20204;-74
2023/07/10 10:37:32;;;;;;;6.60;5.90;;;33.70;94.10;;;;;;5018246;28;20248;-74
2023/07/10 10:39:59;;;;;;;6.90;6.10;;;33.30;93.50;;;;;;5017575;28;20266;-74
2023/07/10 10:42:37;;;;;;;6.93;6.22;;;32.60;94.60;;;;;;5016330;28;20220;-74
2023/07/10 10:45:14;;;;;;;7.25;6.22;;;32.60;94.90;;;;;;5014312;28;20211;-74
2023/07/10 10:48:18;;;;;;;6.50;5.80;;;32.40;94.90;;;;;;5018077;28;20212;-74
2023/07/10 10:50:53;;;;;;;6.97;6.20;;;32.90;95.10;;;;;;5008496;28;20294;-74
2023/07/10 10:53:46;;;;;;;7.03;6.03;;;33.20;94.20;;;;;;5026599;28;20607;-74
2023/07/10 10:56:20;;;;;;;7.13;6.43;;;33.30;94.40;;;;;;5018636;28;20204;-74
2023/07/10 10:58:49;;;;;;;6.93;5.95;;;33.50;93.80;;;;;;5030977;28;20627;-74
2023/07/10 11:01:41;;;;;;;7.15;6.45;;;32.80;93.90;;;;;;5035287;28;20212;-74
2023/07/10 11:04:31;;;;;;;7.28;6.55;;;32.50;94.70;;;;;;5022414;28;20690;-74
2023/07/10 11:07:04;;;;;;;7.80;6.47;;;32.60;94.50;;;;;;5021418;28;20208;-74
2023/07/10 11:09:37;;;;;;;8.70;6.93;;;33.10;94.30;;;;;;5019647;28;20220;-74
2023/07/10 11:12:04;;;;;;;9.18;8.15;;;33.40;94.40;;;;;;5022145;28;20212;-74
2023/07/10 11:14:29;;;;;;;11.23;6.97;;;33.50;94.70;;;;;;5019980;28;20288;-74
2023/07/10 11:16:56;;;;;;;7.45;6.55;;;33.40;95.00;;;;;;5017627;28;21045;-74
2023/07/10 11:19:31;;;;;;;8.98;7.10;;;33.40;95.10;;;;;;5023043;28;20212;-74
2023/07/10 11:22:08;;;;;;;9.68;7.90;;;33.40;95.20;;;;;;5028364;28;20277;-74
2023/07/10 11:24:34;;;;;;;9.65;7.40;;;33.20;95.20;;;;;;5016279;28;20860;-74
2023/07/10 11:27:18;;;;;;;10.02;8.00;;;32.90;95.90;;;;;;5022529;28;20227;-74
2023/07/10 11:29:52;;;;;;;8.98;7.78;;;32.80;96.60;;;;;;5020883;28;20232;-74
2023/07/10 11:32:19;;;;;;;12.82;9.75;;;32.90;97.50;;;;;;5019000;28;20557;-75
2023/07/10 11:35:18;;;;;;;9.23;7.53;;;32.70;98.10;;;;;;5034923;28;20180;-74
2023/07/10 11:37:49;;;;;;;12.35;8.95;;;32.60;98.50;;;;;;5023988;28;20527;-74
2023/07/10 11:40:27;;;;;;;10.75;9.18;;;32.50;99.30;;;;;;5022372;28;20231;-74
2023/07/10 11:42:54;;;;;;;10.68;9.18;;;32.50;99.90;;;;;;5020185;28;20216;-75
2023/07/10 11:45:28;;;;;;;10.50;9.40;;;32.50;99.90;;;;;;5022088;28;20243;-74
2023/07/10 11:47:56;;;;;;;10.38;9.38;;;32.10;99.90;;;;;;5020600;28;20213;-74
2023/07/10 11:50:24;;;;;;;10.43;9.15;;;32.00;99.90;;;;;;5018288;28;20589;-75
2023/07/10 11:53:14;;;;;;;9.63;8.48;;;32.00;99.90;;;;;;5021550;28;20189;-74
2023/07/10 11:56:06;;;;;;;9.30;8.30;;;31.90;99.30;;;;;;5018726;28;20221;-74
2023/07/10 11:58:37;;;;;;;12.80;8.27;;;32.10;99.30;;;;;;5022836;28;20710;-74
2023/07/10 12:01:18;;;;;;;11.00;8.40;;;32.30;99.40;;;;;;5026489;28;20219;-75
2023/07/10 12:03:45;;;;;;;10.68;8.10;;;32.10;99.30;;;;;;5019385;28;20209;-75
2023/07/10 12:06:19;;;;;;;11.10;8.57;;;31.80;99.70;;;;;;5020576;28;20230;-74
2023/07/10 12:08:46;;;;;;;10.43;7.50;;;31.70;99.90;;;;;;5021215;28;20223;-74
2023/07/10 12:11:30;;;;;;;9.02;7.68;;;31.70;99.90;;;;;;5017857;28;20265;-74
2023/07/10 12:14:08;;;;;;;10.77;7.35;;;31.70;99.90;;;;;;5022253;28;20176;-74
2023/07/10 12:16:43;;;;;;;10.40;8.63;;;31.60;99.90;;;;;;5022383;28;20675;-74
2023/07/10 12:19:41;;;;;;;9.60;8.50;;;31.70;99.90;;;;;;5021033;28;20271;-74
2023/07/10 12:22:17;;;;;;;14.68;10.15;;;31.80;99.90;;;;;;5021163;28;20259;-74
2023/07/10 12:24:52;;;;;;;10.18;7.68;;;31.60;99.90;;;;;;5019081;28;20236;-75
2023/07/10 12:27:18;;;;;;;9.75;8.20;;;31.50;99.90;;;;;;5020624;28;20720;-75
2023/07/10 12:30:23;;;;;;;11.40;8.35;;;31.50;99.90;;;;;;5018764;28;20234;-74
2023/07/10 12:32:51;;;;;;;9.40;8.50;;;31.50;99.90;;;;;;5035114;28;20212;-75
2023/07/10 12:35:31;;;;;;;13.85;8.60;;;31.40;99.90;;;;;;5020817;28;20218;-75
2023/07/10 12:38:03;;;;;;;11.40;8.85;;;31.20;99.90;;;;;;5027919;28;20551;-75
2023/07/10 12:40:30;;;;;;;16.95;8.15;;;31.10;99.90;;;;;;5021738;28;20216;-75
2023/07/10 12:42:56;;;;;;;12.40;8.65;;;30.90;99.90;;;;;;5019935;28;20211;-75
2023/07/10 12:45:32;;;;;;;9.75;8.65;;;30.80;99.90;;;;;;5021942;28;20266;-74
2023/07/10 12:48:13;;;;;;;11.93;8.57;;;30.60;99.90;;;;;;5017903;28;20241;-74
2023/07/10 12:50:51;;;;;;;10.73;8.55;;;30.30;99.90;;;;;;5018238;28;20223;-75
2023/07/10 12:53:23;;;;;;;9.48;7.82;;;30.00;99.90;;;;;;5021669;28;20194;-75
2023/07/10 12:55:56;;;;;;;11.13;6.85;;;29.70;99.90;;;;;;5019000;28;20954;-74
2023/07/10 12:58:22;;;;;;;11.80;8.32;;;29.90;99.90;;;;;;5028084;28;20222;-75